Time;durP1;ratioP1;P1;durP2;ratioP2;P2;SDS_P1;SDS_P2;PMS_P1;PMS_P2;Temp;Humidity;BMP_temperature;BMP_pressure;BME280_temperature;BME280_humidity;BME280_pressure;Samples;Min_cycle;Max_cycle;Signal;HPM_P1;HPM_P2
2023/02/01 00:00:26;;;;;;;5.82;1.40;;;15.20;55.00;;;;;;5091101;28;20065;-67
2023/02/01 00:02:52;;;;;;;7.13;1.15;;;15.10;54.50;;;;;;5090450;28;20079;-68
2023/02/01 00:05:19;;;;;;;3.95;1.27;;;15.20;56.20;;;;;;5092820;28;20069;-67
2023/02/01 00:07:48;;;;;;;8.57;1.30;;;15.20;56.10;;;;;;5087361;28;20068;-68
2023/02/01 00:10:15;;;;;;;7.78;1.45;;;15.10;57.00;;;;;;5090100;28;20224;-66
2023/02/01 00:12:42;;;;;;;9.05;1.38;;;15.10;55.80;;;;;;5092192;28;20214;-67
2023/02/01 00:15:08;;;;;;;5.72;1.38;;;15.00;55.60;;;;;;5098611;28;20128;-67
2023/02/01 00:17:35;;;;;;;6.32;1.25;;;15.00;58.20;;;;;;5098294;28;20080;-67
2023/02/01 00:20:02;;;;;;;6.00;1.38;;;15.00;55.30;;;;;;5098428;28;20062;-69
2023/02/01 00:22:28;;;;;;;8.73;1.58;;;15.00;56.20;;;;;;5097191;28;20100;-67
2023/02/01 00:24:54;;;;;;;6.90;1.20;;;15.00;58.70;;;;;;5094630;28;20166;-67
2023/02/01 00:27:21;;;;;;;6.43;1.60;;;15.00;58.70;;;;;;5095501;28;20072;-68
2023/02/01 00:29:47;;;;;;;5.20;1.40;;;15.00;60.20;;;;;;5096946;28;20571;-69
2023/02/01 00:32:14;;;;;;;8.65;1.65;;;14.90;60.80;;;;;;5092569;28;20064;-68
2023/02/01 00:34:40;;;;;;;7.03;2.03;;;14.80;59.70;;;;;;5100517;28;20075;-68
2023/02/01 00:37:07;;;;;;;8.30;1.52;;;14.80;58.70;;;;;;5095108;28;20085;-67
2023/02/01 00:39:33;;;;;;;8.80;1.90;;;14.80;59.20;;;;;;5097312;28;20518;-67
2023/02/01 00:42:02;;;;;;;16.05;2.10;;;14.60;57.10;;;;;;5101738;28;20544;-69
2023/02/01 00:44:32;;;;;;;15.98;2.22;;;14.60;55.80;;;;;;5098823;28;20110;-67
2023/02/01 00:46:59;;;;;;;7.53;2.22;;;14.70;55.60;;;;;;5097018;28;20130;-66
2023/02/01 00:49:26;;;;;;;15.15;2.88;;;14.60;56.10;;;;;;5105210;28;20086;-69
2023/02/01 00:51:52;;;;;;;12.98;2.85;;;14.60;55.80;;;;;;5099682;28;20067;-68
2023/02/01 00:54:19;;;;;;;15.40;2.70;;;14.60;57.10;;;;;;5100985;28;20521;-67
2023/02/01 00:56:45;;;;;;;12.88;2.65;;;14.60;56.90;;;;;;5102453;28;20064;-67
2023/02/01 00:59:12;;;;;;;16.60;3.47;;;14.60;59.00;;;;;;5098762;28;20484;-66
2023/02/01 01:01:38;;;;;;;12.27;3.05;;;14.60;60.80;;;;;;5093039;28;20071;-69
2023/02/01 01:04:05;;;;;;;22.65;5.03;;;14.50;64.20;;;;;;5106846;28;20513;-69
2023/02/01 01:06:33;;;;;;;12.95;2.58;;;14.20;67.60;;;;;;5097766;28;20068;-68
2023/02/01 01:09:02;;;;;;;22.25;3.88;;;14.20;57.20;;;;;;5095126;28;20067;-68
2023/02/01 01:11:32;;;;;;;12.00;3.92;;;14.20;64.10;;;;;;5095634;28;20068;-67
2023/02/01 01:14:00;;;;;;;17.00;3.75;;;14.10;63.60;;;;;;5075810;28;20091;-66
2023/02/01 01:16:28;;;;;;;17.27;6.47;;;14.00;64.30;;;;;;5091074;28;20091;-70
2023/02/01 01:18:56;;;;;;;14.68;3.65;;;14.00;58.80;;;;;;5095108;28;20172;-68
2023/02/01 01:21:22;;;;;;;23.35;8.20;;;14.10;54.40;;;;;;5092103;28;20067;-68
2023/02/01 01:23:49;;;;;;;12.13;2.60;;;14.10;55.10;;;;;;5093340;28;20068;-70
2023/02/01 01:26:22;;;;;;;8.77;1.40;;;14.10;54.40;;;;;;5091692;28;20100;-68
2023/02/01 01:28:49;;;;;;;18.90;2.40;;;14.20;51.40;;;;;;5098747;28;20069;-67
2023/02/01 01:31:17;;;;;;;11.75;1.88;;;14.20;51.60;;;;;;5095659;28;20150;-67
2023/02/01 01:33:44;;;;;;;14.48;2.10;;;14.20;51.40;;;;;;5097526;28;20077;-66
2023/02/01 01:36:11;;;;;;;15.73;2.05;;;14.20;52.90;;;;;;5094798;28;20078;-67
2023/02/01 01:38:39;;;;;;;19.45;4.68;;;14.20;53.90;;;;;;5091441;28;20063;-68
2023/02/01 01:41:06;;;;;;;22.85;10.43;;;14.20;56.10;;;;;;5095032;28;20078;-70
2023/02/01 01:43:53;;;;;;;18.98;3.63;;;14.20;57.50;;;;;;5097446;28;20155;-67
2023/02/01 01:46:22;;;;;;;24.08;4.32;;;14.20;58.00;;;;;;5093883;28;20082;-63
2023/02/01 01:49:07;;;;;;;17.65;4.70;;;14.20;59.00;;;;;;5093651;28;20068;-61
2023/02/01 01:51:39;;;;;;;14.57;5.20;;;14.70;59.40;;;;;;5091210;28;20121;-62
2023/02/01 01:54:28;;;;;;;15.50;3.92;;;14.90;59.90;;;;;;5094363;28;20111;-61
2023/02/01 01:56:59;;;;;;;14.70;3.90;;;15.10;59.10;;;;;;5094682;28;20076;-63
2023/02/01 01:59:26;;;;;;;13.13;3.92;;;15.10;58.50;;;;;;5096629;28;20077;-61
2023/02/01 02:01:53;;;;;;;25.98;4.30;;;15.00;58.90;;;;;;5097351;28;20060;-61
2023/02/01 02:04:20;;;;;;;19.75;4.22;;;14.90;59.20;;;;;;5094960;27;20112;-61
2023/02/01 02:06:56;;;;;;;15.85;4.57;;;14.80;59.00;;;;;;5099654;28;20059;-61
2023/02/01 02:09:23;;;;;;;23.08;4.85;;;14.80;59.30;;;;;;5089326;28;20070;-62
2023/02/01 02:11:49;;;;;;;16.95;4.88;;;15.00;59.80;;;;;;5090405;28;20066;-64
2023/02/01 02:14:19;;;;;;;22.10;5.18;;;15.10;59.40;;;;;;5092915;28;20142;-59
2023/02/01 02:17:15;;;;;;;14.30;4.75;;;15.10;59.20;;;;;;5094620;28;20464;-61
2023/02/01 02:20:14;;;;;;;13.13;4.35;;;15.20;59.20;;;;;;5076104;28;20107;-61
2023/02/01 02:22:55;;;;;;;17.23;4.55;;;15.20;58.90;;;;;;5092238;28;20069;-62
2023/02/01 02:25:49;;;;;;;29.42;9.65;;;15.20;59.00;;;;;;5090757;28;20109;-62
2023/02/01 02:28:53;;;;;;;16.85;4.97;;;15.00;58.30;;;;;;5096143;28;20109;-63
2023/02/01 02:31:41;;;;;;;15.88;4.60;;;14.90;58.10;;;;;;5096422;28;20591;-60
2023/02/01 02:34:42;;;;;;;14.45;5.53;;;14.70;58.90;;;;;;5096610;28;20657;-61
2023/02/01 02:37:35;;;;;;;12.77;4.50;;;14.80;58.40;;;;;;5096624;28;20065;-61
2023/02/01 02:40:26;;;;;;;13.50;4.53;;;14.90;59.20;;;;;;5094267;28;20089;-61
2023/02/01 02:49:05;;;;;;;10.23;4.35;;;14.80;60.50;;;;;;5101683;28;20420;-64
2023/02/01 02:54:51;;;;;;;17.48;5.03;;;14.90;59.00;;;;;;5094912;28;20069;-62
2023/02/01 03:05:50;;;;;;;16.70;5.50;;;14.80;60.60;;;;;;5090220;28;20171;-62
2023/02/01 03:08:19;;;;;;;23.58;9.25;;;14.70;59.90;;;;;;5092534;28;20220;-62
2023/02/01 03:10:55;;;;;;;26.58;10.60;;;14.70;59.00;;;;;;5088882;28;20521;-60
2023/02/01 03:13:40;;;;;;;27.13;9.73;;;14.70;58.70;;;;;;5093885;28;20091;-61
2023/02/01 03:16:27;;;;;;;19.05;8.73;;;14.60;58.60;;;;;;5087143;28;20105;-61
2023/02/01 03:19:03;;;;;;;29.63;8.40;;;14.60;58.50;;;;;;5089508;28;20062;-64
2023/02/01 03:21:33;;;;;;;21.92;9.38;;;14.50;58.20;;;;;;5093676;28;20062;-61
2023/02/01 03:24:07;;;;;;;31.83;8.95;;;14.50;58.60;;;;;;5095302;28;20404;-61
2023/02/01 03:26:38;;;;;;;37.80;11.05;;;14.50;58.20;;;;;;5091224;28;20075;-61
2023/02/01 03:29:17;;;;;;;23.42;10.43;;;14.50;59.30;;;;;;5090863;28;20079;-60
2023/02/01 03:31:44;;;;;;;24.67;10.23;;;14.50;59.70;;;;;;5091415;28;20068;-60
2023/02/01 03:34:13;;;;;;;27.48;10.43;;;14.50;60.00;;;;;;5098791;28;20077;-62
2023/02/01 03:36:50;;;;;;;23.25;9.63;;;14.50;60.30;;;;;;5089857;28;20078;-61
2023/02/01 03:39:53;;;;;;;21.27;8.45;;;14.50;59.50;;;;;;5096167;28;20531;-61
2023/02/01 03:42:40;;;;;;;21.23;8.88;;;14.50;59.40;;;;;;5081976;28;20077;-60
2023/02/01 03:45:36;;;;;;;;;;;14.50;59.80;;;;;;5089785;28;20100;-61
2023/02/01 03:48:04;;;;;;;19.65;6.07;;;14.30;59.30;;;;;;5008796;28;19983;-61
2023/02/01 03:50:33;;;;;;;20.70;7.40;;;14.30;60.20;;;;;;5017110;28;20080;-63
2023/02/01 03:53:11;;;;;;;20.33;5.70;;;14.20;60.90;;;;;;5018131;28;20257;-60
2023/02/01 03:55:38;;;;;;;20.08;6.38;;;14.30;61.60;;;;;;5015541;28;20102;-62
2023/02/01 03:58:14;;;;;;;21.40;6.15;;;14.20;61.20;;;;;;5016601;28;20076;-61
2023/02/01 04:00:44;;;;;;;18.25;5.85;;;14.20;62.00;;;;;;5015602;28;20080;-61
2023/02/01 04:03:11;;;;;;;16.42;5.93;;;14.10;62.10;;;;;;5011781;28;20066;-63
2023/02/01 04:05:37;;;;;;;;;;;14.10;62.90;;;;;;5017330;28;20075;-61
2023/02/01 04:08:04;;;;;;;19.95;5.35;;;14.10;62.80;;;;;;5023850;28;20054;-62
2023/02/01 04:10:31;;;;;;;15.52;5.43;;;14.10;62.90;;;;;;5012725;28;20060;-62
2023/02/01 04:12:57;;;;;;;;;;;14.10;63.90;;;;;;5015423;28;20092;-63
2023/02/01 04:15:23;;;;;;;22.70;5.70;;;13.90;63.30;;;;;;5011760;28;20005;-62
2023/02/01 04:17:50;;;;;;;18.35;5.60;;;14.00;64.60;;;;;;5011412;28;20086;-63
2023/02/01 04:20:16;;;;;;;27.23;5.47;;;13.90;64.20;;;;;;5016653;28;20073;-64
2023/02/01 04:22:43;;;;;;;22.92;6.47;;;13.90;64.60;;;;;;5013355;28;20162;-62
2023/02/01 04:25:10;;;;;;;15.55;5.70;;;14.00;64.90;;;;;;5080038;28;20082;-64
2023/02/01 04:27:36;;;;;;;29.48;10.30;;;14.00;64.80;;;;;;5095638;28;20057;-61
2023/02/01 04:30:04;;;;;;;23.58;7.22;;;13.90;65.30;;;;;;5088409;28;20157;-62
2023/02/01 04:32:31;;;;;;;26.98;10.80;;;13.90;65.50;;;;;;5094175;28;20131;-61
2023/02/01 04:34:57;;;;;;;21.95;10.98;;;13.90;65.30;;;;;;5096205;28;20078;-60
2023/02/01 04:37:23;;;;;;;;;;;13.90;66.50;;;;;;5095048;28;20670;-61
2023/02/01 04:39:50;;;;;;;32.65;10.05;;;13.90;65.20;;;;;;5092692;28;20012;-61
2023/02/01 04:42:16;;;;;;;;;;;13.90;65.80;;;;;;5092409;28;20065;-61
2023/02/01 04:44:42;;;;;;;28.60;10.95;;;13.90;65.40;;;;;;5083168;28;19988;-61
2023/02/01 04:47:09;;;;;;;;;;;13.80;65.00;;;;;;5089886;28;20121;-59
2023/02/01 04:49:35;;;;;;;26.50;10.90;;;13.80;65.40;;;;;;5087664;28;20399;-61
2023/02/01 04:52:02;;;;;;;24.35;10.85;;;13.80;65.30;;;;;;5088788;28;20095;-61
2023/02/01 04:54:29;;;;;;;23.50;10.75;;;13.80;65.50;;;;;;5094392;28;21751;-61
2023/02/01 04:56:55;;;;;;;;;;;13.80;64.80;;;;;;5090130;28;20065;-61
2023/02/01 04:59:21;;;;;;;20.70;9.25;;;13.80;65.20;;;;;;5092377;28;19962;-60
2023/02/01 05:01:47;;;;;;;;;;;13.80;65.10;;;;;;5095837;28;20149;-61
2023/02/01 05:04:13;;;;;;;19.73;8.45;;;13.80;64.60;;;;;;5094781;28;19981;-64
2023/02/01 05:06:40;;;;;;;23.00;8.90;;;13.70;65.10;;;;;;5091929;28;20513;-63
2023/02/01 05:09:06;;;;;;;;;;;13.80;66.80;;;;;;5094101;28;20115;-61
2023/02/01 05:14:17;;;;;;;17.80;8.70;;;13.80;64.30;;;;;;5093614;28;20085;-60
2023/02/01 05:16:43;;;;;;;;;;;13.80;64.10;;;;;;5097460;28;20495;-60
2023/02/01 05:19:09;;;;;;;17.60;7.28;;;13.70;65.30;;;;;;5092543;28;19982;-61
2023/02/01 05:21:36;;;;;;;18.88;7.00;;;13.70;63.60;;;;;;5100828;28;20475;-62
2023/02/01 05:24:12;;;;;;;;;;;13.70;64.30;;;;;;5095993;28;20056;-61
2023/02/01 05:26:40;;;;;;;20.85;6.72;;;13.70;63.90;;;;;;5091231;28;19951;-63
2023/02/01 05:29:08;;;;;;;16.42;7.07;;;13.70;66.10;;;;;;5094387;28;20103;-63
2023/02/01 05:31:35;;;;;;;16.98;7.38;;;13.70;67.20;;;;;;5090284;28;20172;-60
2023/02/01 05:34:02;;;;;;;27.90;8.27;;;13.70;64.80;;;;;;5093564;28;20516;-61
2023/02/01 05:36:28;;;;;;;22.30;9.82;;;13.70;65.60;;;;;;5094746;28;20655;-63
2023/02/01 05:38:55;;;;;;;;;;;13.70;65.50;;;;;;5091930;28;20122;-62
2023/02/01 05:41:21;;;;;;;24.48;9.70;;;13.60;66.20;;;;;;5090723;28;19958;-63
2023/02/01 05:43:47;;;;;;;;;;;13.60;66.70;;;;;;5091960;28;20063;-63
2023/02/01 05:46:13;;;;;;;22.20;10.23;;;13.70;67.40;;;;;;5087839;28;19979;-60
2023/02/01 05:48:41;;;;;;;31.02;10.20;;;13.60;67.20;;;;;;5089540;28;20518;-62
2023/02/01 05:51:08;;;;;;;24.58;10.43;;;13.60;68.10;;;;;;5090739;28;20142;-60
2023/02/01 05:53:34;;;;;;;22.00;9.80;;;13.60;67.90;;;;;;5099061;28;20059;-61
2023/02/01 05:56:01;;;;;;;22.73;9.27;;;13.60;68.10;;;;;;5102076;28;20540;-61
2023/02/01 05:58:28;;;;;;;26.58;11.07;;;13.60;68.50;;;;;;5095341;28;20071;-62
2023/02/01 06:00:54;;;;;;;30.38;10.70;;;13.60;69.00;;;;;;5091338;28;20069;-62
2023/02/01 06:03:20;;;;;;;;;;;13.60;70.70;;;;;;5096605;28;20226;-62
2023/02/01 06:05:48;;;;;;;23.63;12.45;;;13.60;71.50;;;;;;5093775;28;19957;-61
2023/02/01 06:08:14;;;;;;;24.63;10.00;;;13.60;71.70;;;;;;5093212;28;20528;-61
2023/02/01 06:10:41;;;;;;;26.88;10.82;;;13.60;72.60;;;;;;5090933;28;20085;-61
2023/02/01 06:13:08;;;;;;;;;;;13.60;72.50;;;;;;5089007;28;20066;-63
2023/02/01 06:15:35;;;;;;;23.15;9.00;;;13.50;72.90;;;;;;5093677;28;19965;-62
2023/02/01 06:18:01;;;;;;;28.00;10.38;;;13.50;72.10;;;;;;5091635;28;20111;-60
2023/02/01 06:20:27;;;;;;;;;;;13.40;72.00;;;;;;5094496;28;20508;-60
2023/02/01 06:22:54;;;;;;;24.63;11.57;;;13.40;72.90;;;;;;5090258;28;20036;-61
2023/02/01 06:25:21;;;;;;;24.83;10.48;;;13.40;74.20;;;;;;5089313;28;20554;-61
2023/02/01 06:27:48;;;;;;;21.05;8.98;;;13.30;72.90;;;;;;5096686;28;20492;-61
2023/02/01 06:30:15;;;;;;;15.00;8.88;;;13.30;72.10;;;;;;5092468;28;20429;-61
2023/02/01 06:32:41;;;;;;;22.77;8.85;;;13.30;71.90;;;;;;5090124;28;20581;-61
2023/02/01 06:35:15;;;;;;;16.85;8.85;;;13.30;72.90;;;;;;5090962;28;20090;-61
2023/02/01 06:37:42;;;;;;;23.17;7.20;;;13.40;72.80;;;;;;5089213;28;20483;-62
2023/02/01 06:40:09;;;;;;;19.77;6.25;;;13.40;72.00;;;;;;5094402;28;20064;-62
2023/02/01 06:42:36;;;;;;;17.00;6.20;;;13.30;71.60;;;;;;5102168;28;20062;-65
2023/02/01 06:45:02;;;;;;;;;;;13.30;72.10;;;;;;5095656;28;20109;-67
2023/02/01 06:47:28;;;;;;;16.70;4.50;;;13.20;71.80;;;;;;5092516;28;19971;-65
2023/02/01 06:49:54;;;;;;;;;;;13.20;71.50;;;;;;5103599;28;20536;-61
2023/02/01 06:52:21;;;;;;;15.38;5.10;;;13.20;72.70;;;;;;5096110;28;19958;-62
2023/02/01 06:54:47;;;;;;;;;;;13.30;72.20;;;;;;5092956;28;20093;-65
2023/02/01 06:57:14;;;;;;;15.38;4.97;;;13.30;73.30;;;;;;5096775;27;19975;-62
2023/02/01 06:59:41;;;;;;;15.20;3.00;;;13.30;72.70;;;;;;5100465;28;20086;-60
2023/02/01 07:02:10;;;;;;;;;;;13.20;67.00;;;;;;5093990;28;20473;-64
2023/02/01 07:04:36;;;;;;;9.23;1.98;;;13.20;64.00;;;;;;5097007;28;19956;-61
2023/02/01 07:07:02;;;;;;;;;;;13.30;65.60;;;;;;5099492;28;20081;-58
2023/02/01 07:09:28;;;;;;;4.45;1.17;;;13.20;67.70;;;;;;5091716;28;19948;-59
2023/02/01 07:11:54;;;;;;;;;;;13.20;69.70;;;;;;5094369;28;20068;-58
2023/02/01 07:14:21;;;;;;;2.95;1.10;;;13.10;72.20;;;;;;5092135;28;20330;-55
2023/02/01 07:16:47;;;;;;;;;;;13.10;75.20;;;;;;5091696;28;20143;-57
2023/02/01 07:19:13;;;;;;;4.22;1.13;;;13.10;78.30;;;;;;5092269;28;20372;-61
2023/02/01 07:21:39;;;;;;;;;;;13.00;79.50;;;;;;5090678;28;20086;-61
2023/02/01 07:24:06;;;;;;;3.40;1.25;;;12.90;79.40;;;;;;5091384;28;19955;-60
2023/02/01 07:26:32;;;;;;;5.80;1.52;;;12.90;79.90;;;;;;5091026;28;20071;-58
2023/02/01 07:28:59;;;;;;;;;;;12.80;79.10;;;;;;5094158;28;20082;-61
2023/02/01 07:31:28;;;;;;;2.25;1.13;;;12.70;79.40;;;;;;5088808;28;19974;-57
2023/02/01 07:33:56;;;;;;;3.38;1.00;;;12.70;79.60;;;;;;5094749;28;20086;-59
2023/02/01 07:36:22;;;;;;;3.22;1.30;;;12.70;81.40;;;;;;5091815;28;20094;-60
2023/02/01 07:38:48;;;;;;;;;;;12.70;80.40;;;;;;5096059;28;20281;-59
2023/02/01 07:41:15;;;;;;;3.13;1.40;;;12.70;80.10;;;;;;5089686;28;20036;-57
2023/02/01 07:43:42;;;;;;;4.90;1.20;;;12.70;81.30;;;;;;5088724;28;20072;-62
2023/02/01 07:46:09;;;;;;;;;;;12.70;81.70;;;;;;5093312;28;20092;-58
2023/02/01 07:48:35;;;;;;;2.63;1.27;;;12.70;82.60;;;;;;5092157;28;20061;-59
2023/02/01 07:51:06;;;;;;;;;;;12.70;83.10;;;;;;5092435;28;20431;-60
2023/02/01 07:53:33;;;;;;;5.07;1.40;;;12.60;83.00;;;;;;5086434;28;19951;-58
2023/02/01 07:56:00;;;;;;;5.43;1.50;;;12.60;83.90;;;;;;5090937;28;20540;-60
2023/02/01 07:58:27;;;;;;;3.42;1.63;;;12.50;83.90;;;;;;5091459;28;20071;-61
2023/02/01 08:03:39;;;;;;;6.78;2.60;;;12.50;82.60;;;;;;5088809;28;20140;-55
2023/02/01 08:06:06;;;;;;;9.13;2.13;;;12.50;83.50;;;;;;5086758;28;20088;-58
2023/02/01 08:08:33;;;;;;;6.65;2.05;;;12.50;82.90;;;;;;5085963;28;20542;-60
2023/02/01 08:11:02;;;;;;;5.68;1.90;;;12.60;83.00;;;;;;5087986;28;20489;-59
2023/02/01 08:13:29;;;;;;;9.63;1.98;;;12.50;80.90;;;;;;5086179;28;20069;-59
2023/02/01 08:15:59;;;;;;;8.30;2.13;;;12.50;74.60;;;;;;5085972;28;20082;-59
2023/02/01 08:18:26;;;;;;;3.70;1.80;;;12.50;73.70;;;;;;5088643;28;20279;-61
2023/02/01 08:20:52;;;;;;;3.55;1.25;;;12.50;70.20;;;;;;5088661;28;20071;-58
2023/02/01 08:23:19;;;;;;;3.97;1.30;;;12.60;68.70;;;;;;5086824;28;20078;-60
2023/02/01 08:25:46;;;;;;;6.30;1.35;;;12.60;66.80;;;;;;5086673;28;20068;-60
2023/02/01 08:28:13;;;;;;;3.40;1.50;;;12.70;64.80;;;;;;5088427;28;20073;-57
2023/02/01 08:30:42;;;;;;;3.38;1.55;;;12.70;64.40;;;;;;5085641;28;20493;-58
2023/02/01 08:33:09;;;;;;;9.10;1.67;;;12.70;66.00;;;;;;5089629;28;20087;-57
2023/02/01 08:35:37;;;;;;;5.18;1.50;;;12.70;66.90;;;;;;5091773;28;20604;-60
2023/02/01 08:38:04;;;;;;;4.90;1.50;;;12.80;69.50;;;;;;5090052;28;20090;-59
2023/02/01 08:40:31;;;;;;;5.97;1.67;;;12.80;69.60;;;;;;5092021;28;20069;-60
2023/02/01 08:42:58;;;;;;;4.90;2.00;;;12.80;69.30;;;;;;5090894;28;20503;-60
2023/02/01 08:45:28;;;;;;;4.25;1.75;;;12.80;69.20;;;;;;5088181;28;20172;-58
2023/02/01 08:47:54;;;;;;;5.03;1.90;;;12.70;70.00;;;;;;5089591;28;20084;-59
2023/02/01 08:50:21;;;;;;;3.55;1.98;;;12.60;71.40;;;;;;5093439;28;20112;-59
2023/02/01 08:52:48;;;;;;;12.50;2.20;;;12.60;71.80;;;;;;5090348;28;20075;-59
2023/02/01 08:55:15;;;;;;;4.85;1.92;;;12.60;71.90;;;;;;5089261;28;20113;-59
2023/02/01 08:57:43;;;;;;;6.15;1.85;;;12.60;72.80;;;;;;5090273;28;20076;-60
2023/02/01 09:00:12;;;;;;;4.45;2.40;;;12.60;74.10;;;;;;5089059;28;20090;-59
2023/02/01 09:02:39;;;;;;;8.93;2.10;;;12.60;74.90;;;;;;5090755;28;20072;-59
2023/02/01 09:05:06;;;;;;;9.27;2.08;;;12.60;76.10;;;;;;5092009;28;20078;-59
2023/02/01 09:07:33;;;;;;;8.23;2.20;;;12.60;75.80;;;;;;5089801;28;20108;-58
2023/02/01 09:10:00;;;;;;;3.40;1.70;;;12.50;74.60;;;;;;5088842;28;20484;-60
2023/02/01 09:12:32;;;;;;;3.88;1.90;;;12.40;74.40;;;;;;5088922;28;20072;-58
2023/02/01 09:14:59;;;;;;;4.30;1.70;;;12.50;75.30;;;;;;5089826;28;20535;-60
2023/02/01 09:17:29;;;;;;;4.20;1.88;;;12.50;76.80;;;;;;5089628;28;20117;-57
2023/02/01 09:19:56;;;;;;;6.03;2.15;;;12.50;78.10;;;;;;5089595;28;20060;-58
2023/02/01 09:22:22;;;;;;;14.07;2.15;;;12.50;77.60;;;;;;5089313;28;20089;-60
2023/02/01 09:24:48;;;;;;;;;;;12.50;78.00;;;;;;5090865;28;20098;-58
2023/02/01 09:27:15;;;;;;;7.03;2.70;;;12.50;78.30;;;;;;5088681;28;20431;-59
2023/02/01 09:29:41;;;;;;;;;;;12.40;77.50;;;;;;5088052;28;20076;-59
2023/02/01 09:32:07;;;;;;;8.48;3.35;;;12.40;81.50;;;;;;5089454;28;19971;-59
2023/02/01 09:34:35;;;;;;;11.35;3.28;;;12.40;86.70;;;;;;5089542;28;20116;-57
2023/02/01 09:37:01;;;;;;;8.50;2.45;;;12.30;88.90;;;;;;5089754;28;20073;-60
2023/02/01 09:39:29;;;;;;;7.82;3.40;;;12.30;88.80;;;;;;5091505;28;20129;-58
2023/02/01 09:41:59;;;;;;;7.60;3.60;;;12.20;90.20;;;;;;5089359;28;20067;-58
2023/02/01 09:44:46;;;;;;;6.93;2.50;;;12.10;89.60;;;;;;5089512;28;20084;-57
2023/02/01 09:47:18;;;;;;;9.90;2.78;;;12.10;91.00;;;;;;5090218;28;20109;-58
2023/02/01 09:50:06;;;;;;;7.05;2.85;;;12.10;91.40;;;;;;5087119;28;20071;-58
2023/02/01 09:52:59;;;;;;;8.77;2.50;;;11.90;92.10;;;;;;5089239;28;20071;-58
2023/02/01 09:55:42;;;;;;;7.20;2.30;;;11.90;90.50;;;;;;5081676;28;20157;-57
2023/02/01 09:58:22;;;;;;;8.23;3.08;;;12.00;87.70;;;;;;5088404;28;20070;-60
2023/02/01 10:00:55;;;;;;;9.18;2.65;;;12.00;87.40;;;;;;5088698;28;20537;-57
2023/02/01 10:03:24;;;;;;;6.55;2.70;;;12.10;90.00;;;;;;5089961;28;20083;-58
2023/02/01 10:06:08;;;;;;;7.68;2.80;;;12.00;90.00;;;;;;5088645;28;20072;-58
2023/02/01 10:09:05;;;;;;;7.75;2.85;;;11.90;91.10;;;;;;5088967;28;20169;-59
2023/02/01 10:12:08;;;;;;;13.07;2.88;;;12.00;91.60;;;;;;5090543;28;20179;-59
2023/02/01 10:14:59;;;;;;;10.18;2.75;;;12.10;92.30;;;;;;5089090;28;20067;-59
2023/02/01 10:17:59;;;;;;;6.47;3.28;;;12.10;92.80;;;;;;5085474;28;20093;-58
2023/02/01 10:20:54;;;;;;;10.52;4.60;;;12.00;92.40;;;;;;5086731;28;20538;-59
2023/02/01 10:23:49;;;;;;;9.50;4.70;;;12.00;92.70;;;;;;5087755;28;20069;-60
2023/02/01 10:26:24;;;;;;;13.77;5.10;;;12.00;93.90;;;;;;5088347;28;20080;-59
2023/02/01 10:29:00;;;;;;;14.88;5.13;;;12.00;94.20;;;;;;5088051;28;20121;-56
2023/02/01 10:31:31;;;;;;;15.10;4.90;;;12.00;94.40;;;;;;5088901;28;20076;-58
2023/02/01 10:34:12;;;;;;;15.15;5.20;;;12.00;94.40;;;;;;5087106;28;20140;-59
2023/02/01 10:36:52;;;;;;;10.73;4.18;;;11.90;93.50;;;;;;5091600;28;20136;-60
2023/02/01 10:39:19;;;;;;;13.13;4.47;;;11.90;94.10;;;;;;5088347;28;20068;-60
2023/02/01 10:41:45;;;;;;;15.93;5.43;;;11.90;93.90;;;;;;5088578;28;20093;-58
2023/02/01 10:44:18;;;;;;;19.02;7.43;;;11.90;94.00;;;;;;5087997;28;20082;-60
2023/02/01 10:46:44;;;;;;;26.58;10.32;;;11.90;93.30;;;;;;5086188;28;20151;-60
2023/02/01 10:49:28;;;;;;;;;;;11.70;91.60;;;;;;5089730;28;20151;-60
2023/02/01 10:52:28;;;;;;;58.67;33.97;;;11.70;91.50;;;;;;5087827;28;20471;-59
2023/02/01 10:54:54;;;;;;;67.10;38.17;;;11.80;92.00;;;;;;5068586;28;20110;-61
2023/02/01 10:57:23;;;;;;;;;;;11.80;91.90;;;;;;5088915;28;20072;-58
2023/02/01 10:59:49;;;;;;;57.95;32.88;;;11.80;91.60;;;;;;5088913;28;19976;-60
2023/02/01 11:02:35;;;;;;;;;;;11.80;91.40;;;;;;5089209;28;20063;-59
2023/02/01 11:05:07;;;;;;;57.78;28.58;;;11.70;91.20;;;;;;5087947;28;19952;-59
2023/02/01 11:07:34;;;;;;;62.17;29.52;;;11.70;91.30;;;;;;5086054;28;20079;-59
2023/02/01 11:10:01;;;;;;;68.68;32.13;;;11.70;91.70;;;;;;5087037;28;20072;-59
2023/02/01 11:12:34;;;;;;;63.30;30.33;;;11.70;91.90;;;;;;5089594;28;20080;-60
2023/02/01 11:15:27;;;;;;;60.20;25.92;;;11.60;91.90;;;;;;5087946;28;20082;-60
2023/02/01 11:17:56;;;;;;;46.75;20.23;;;11.60;91.80;;;;;;5083089;28;20075;-60
2023/02/01 11:20:32;;;;;;;29.38;14.35;;;11.60;92.30;;;;;;5085319;28;20111;-60
2023/02/01 11:22:59;;;;;;;31.00;13.45;;;11.50;92.20;;;;;;5090750;28;20078;-60
2023/02/01 11:25:26;;;;;;;22.45;10.63;;;11.50;92.40;;;;;;5088843;28;20084;-60
2023/02/01 11:27:55;;;;;;;20.55;9.35;;;11.50;92.70;;;;;;5089108;28;20213;-58
2023/02/01 11:30:40;;;;;;;23.75;8.57;;;11.50;92.60;;;;;;5090468;28;20541;-61
2023/02/01 11:33:12;;;;;;;17.90;8.65;;;11.50;92.70;;;;;;5086962;28;20444;-60
2023/02/01 11:35:40;;;;;;;19.67;8.13;;;11.40;93.00;;;;;;5087238;28;20127;-61
2023/02/01 11:38:30;;;;;;;22.20;8.27;;;11.40;93.10;;;;;;5087581;28;20071;-59
2023/02/01 11:41:11;;;;;;;17.35;7.80;;;11.30;93.20;;;;;;5087543;28;20075;-61
2023/02/01 11:43:49;;;;;;;16.17;7.38;;;11.30;93.60;;;;;;5085776;28;20075;-58
2023/02/01 11:46:24;;;;;;;17.05;8.13;;;11.20;93.50;;;;;;5086523;28;20468;-59
2023/02/01 11:48:53;;;;;;;15.25;7.32;;;11.10;94.40;;;;;;5086533;28;20437;-59
2023/02/01 11:51:28;;;;;;;12.95;7.03;;;11.10;94.50;;;;;;5088655;28;20445;-61
2023/02/01 11:54:35;;;;;;;17.95;7.70;;;11.20;94.60;;;;;;5086768;28;20077;-60
2023/02/01 11:57:20;;;;;;;17.30;7.60;;;11.10;94.60;;;;;;5085376;28;20188;-60
2023/02/01 12:00:05;;;;;;;16.27;7.60;;;11.10;94.00;;;;;;5085847;28;20089;-58
2023/02/01 12:02:40;;;;;;;21.25;8.15;;;11.10;94.40;;;;;;5086858;28;20621;-59
2023/02/01 12:05:28;;;;;;;16.08;7.90;;;11.10;94.70;;;;;;5087359;28;20072;-61
2023/02/01 12:08:00;;;;;;;15.77;8.02;;;11.10;94.80;;;;;;5085983;28;20083;-61
2023/02/01 12:11:08;;;;;;;15.30;8.32;;;11.10;95.00;;;;;;5086329;28;20093;-60
2023/02/01 12:14:20;;;;;;;20.10;8.63;;;11.10;94.80;;;;;;5037237;28;20089;-60
2023/02/01 12:17:12;;;;;;;15.95;8.25;;;11.10;94.70;;;;;;5037330;28;20210;-56
2023/02/01 12:19:52;;;;;;;20.45;9.10;;;11.20;94.80;;;;;;5036433;28;20081;-59
2023/02/01 12:22:28;;;;;;;22.42;9.60;;;11.20;95.00;;;;;;5035442;28;20639;-58
2023/02/01 12:24:54;;;;;;;22.17;8.80;;;11.20;95.10;;;;;;5038921;28;20567;-61
2023/02/01 12:27:33;;;;;;;17.02;8.73;;;11.20;94.70;;;;;;5040921;28;20075;-59
2023/02/01 12:30:09;;;;;;;13.32;7.97;;;11.10;94.50;;;;;;5038847;28;20092;-58
2023/02/01 12:32:47;;;;;;;17.02;8.80;;;11.20;94.90;;;;;;5035932;28;20088;-59
2023/02/01 12:35:39;;;;;;;15.32;8.25;;;11.10;95.40;;;;;;5035828;28;20094;-60
2023/02/01 12:38:39;;;;;;;18.42;7.97;;;11.10;95.60;;;;;;5034616;28;20091;-56
2023/02/01 12:41:23;;;;;;;16.25;8.02;;;11.20;95.60;;;;;;5033608;28;20082;-60
2023/02/01 12:44:06;;;;;;;19.92;8.52;;;11.10;95.60;;;;;;5048449;28;20534;-60
2023/02/01 12:46:43;;;;;;;20.70;7.80;;;11.20;95.70;;;;;;5085485;28;20109;-59
2023/02/01 12:49:33;;;;;;;17.30;8.00;;;11.20;96.00;;;;;;5087043;28;20076;-59
2023/02/01 12:52:04;;;;;;;18.60;8.35;;;11.20;96.10;;;;;;5086694;28;20534;-60
2023/02/01 12:54:51;;;;;;;13.95;7.85;;;11.20;96.00;;;;;;5085763;28;20070;-58
2023/02/01 12:57:26;;;;;;;16.33;7.00;;;11.20;96.50;;;;;;5082732;28;20082;-60
2023/02/01 13:00:22;;;;;;;17.42;7.78;;;11.10;96.20;;;;;;5083479;28;20571;-61
2023/02/01 13:02:54;;;;;;;16.45;7.68;;;11.00;96.70;;;;;;5087032;28;22168;-57
2023/02/01 13:05:31;;;;;;;19.67;7.72;;;11.00;96.80;;;;;;5088313;28;20204;-60
2023/02/01 13:08:07;;;;;;;17.65;7.32;;;11.00;97.30;;;;;;5090227;28;20456;-59
2023/02/01 13:11:06;;;;;;;18.27;8.07;;;11.00;97.20;;;;;;5087470;28;20068;-61
2023/02/01 13:13:51;;;;;;;13.32;6.50;;;11.00;97.20;;;;;;5084889;28;20102;-60
2023/02/01 13:16:32;;;;;;;15.30;6.95;;;11.10;96.80;;;;;;5086011;28;20651;-59
2023/02/01 13:19:09;;;;;;;11.77;6.20;;;11.00;96.30;;;;;;5087113;28;20067;-61
2023/02/01 13:21:42;;;;;;;14.35;5.70;;;11.00;96.20;;;;;;5087524;28;20423;-59
2023/02/01 13:25:01;;;;;;;12.93;5.97;;;11.00;95.80;;;;;;5094177;28;20431;-60
2023/02/01 13:27:32;;;;;;;12.38;5.43;;;11.10;95.60;;;;;;5016141;28;20151;-59
2023/02/01 13:30:19;;;;;;;11.82;5.30;;;11.00;95.30;;;;;;5016261;28;20077;-61
2023/02/01 13:33:12;;;;;;;19.35;5.47;;;11.00;95.00;;;;;;5010454;28;20173;-61
2023/02/01 13:35:55;;;;;;;12.13;5.50;;;11.00;94.70;;;;;;5014008;28;20093;-61
2023/02/01 13:38:40;;;;;;;11.70;5.03;;;11.10;94.70;;;;;;5010282;28;20088;-60